createdAt,value
2023-03-16T00:00:09.921Z,1.11
2023-03-16T00:02:57.937Z,1.09
2023-03-16T00:05:26.019Z,1.10
2023-03-16T00:07:54.051Z,1.09
2023-03-16T00:10:27.445Z,1.07
2023-03-16T00:12:56.733Z,1.06
2023-03-16T00:15:24.824Z,1.04
2023-03-16T00:17:53.237Z,1.02
2023-03-16T00:20:21.295Z,0.98
2023-03-16T00:22:49.285Z,0.97
2023-03-16T00:25:17.640Z,0.94
2023-03-16T00:27:45.787Z,0.92
2023-03-16T00:30:13.972Z,0.90
2023-03-16T00:32:42.132Z,0.88
2023-03-16T00:35:10.947Z,0.86
2023-03-16T00:37:39.824Z,0.83
2023-03-16T00:40:09.713Z,0.82
2023-03-16T00:42:37.896Z,0.78
2023-03-16T00:45:07.424Z,0.74
2023-03-16T00:47:36.365Z,0.73
2023-03-16T00:50:04.860Z,0.72
2023-03-16T00:52:35.427Z,0.69
2023-03-16T00:55:04.948Z,0.68
2023-03-16T00:57:33.091Z,0.68
2023-03-16T01:00:09.166Z,0.68
2023-03-16T01:02:37.185Z,0.67
2023-03-16T01:05:05.827Z,0.66
2023-03-16T01:07:36.532Z,0.64
2023-03-16T01:10:05.785Z,0.62
2023-03-16T01:12:34.072Z,0.61
2023-03-16T01:15:02.429Z,0.62
2023-03-16T01:17:35.097Z,0.62
2023-03-16T01:20:08.151Z,0.61
2023-03-16T01:22:36.354Z,0.58
2023-03-16T01:25:05.786Z,0.55
2023-03-16T01:27:34.021Z,0.53
2023-03-16T01:30:02.399Z,0.55
2023-03-16T01:32:31.553Z,0.55
2023-03-16T01:34:59.812Z,0.54
2023-03-16T01:37:28.053Z,0.54
2023-03-16T01:40:00.429Z,0.56
2023-03-16T01:42:28.647Z,0.56
2023-03-16T01:45:05.716Z,0.55
2023-03-16T01:47:39.887Z,0.54
2023-03-16T01:50:14.360Z,0.53
2023-03-16T01:52:43.816Z,0.51
2023-03-16T01:55:15.761Z,0.52
2023-03-16T01:57:47.393Z,0.53
2023-03-16T02:00:23.623Z,0.52
2023-03-16T02:03:11.851Z,0.52
2023-03-16T02:05:56.466Z,0.52
2023-03-16T02:08:27.587Z,0.51
2023-03-16T02:10:57.121Z,0.51
2023-03-16T02:13:34.021Z,0.50
2023-03-16T02:16:08.924Z,0.49
2023-03-16T02:18:37.505Z,0.48
2023-03-16T02:21:20.153Z,0.47
2023-03-16T02:23:50.894Z,0.47
2023-03-16T02:26:29.770Z,0.44
2023-03-16T02:29:01.292Z,0.44
2023-03-16T02:31:30.439Z,0.42
2023-03-16T02:33:59.246Z,0.41
2023-03-16T02:36:28.263Z,0.39
2023-03-16T02:38:56.341Z,0.38
2023-03-16T02:41:25.239Z,0.34
2023-03-16T02:44:24.457Z,0.31
2023-03-16T02:46:59.705Z,0.26
2023-03-16T02:49:36.067Z,0.23
2023-03-16T02:52:08.167Z,0.19
2023-03-16T02:54:36.283Z,0.14
2023-03-16T02:57:05.052Z,0.10
2023-03-16T02:59:33.418Z,0.06
2023-03-16T03:02:28.205Z,0.03
2023-03-16T03:04:57.121Z,-0.00
2023-03-16T03:07:31.898Z,-0.03
2023-03-16T03:10:06.164Z,-0.05
2023-03-16T03:12:34.785Z,-0.04
2023-03-16T03:15:06.003Z,-0.05
2023-03-16T03:17:40.139Z,-0.04
2023-03-16T03:20:16.306Z,-0.04
2023-03-16T03:22:47.279Z,-0.06
2023-03-16T03:25:17.319Z,-0.07
2023-03-16T03:27:47.583Z,-0.07
2023-03-16T03:30:19.910Z,-0.05
2023-03-16T03:32:49.399Z,-0.04
2023-03-16T03:35:20.557Z,-0.03
2023-03-16T03:37:49.380Z,-0.02
2023-03-16T03:40:19.910Z,-0.03
2023-03-16T03:42:51.591Z,-0.05
2023-03-16T03:45:20.762Z,-0.06
2023-03-16T03:47:48.993Z,-0.08
2023-03-16T03:50:21.177Z,-0.08
2023-03-16T03:52:58.046Z,-0.07
2023-03-16T03:55:27.007Z,-0.06
2023-03-16T03:57:55.164Z,-0.06
2023-03-16T04:00:23.371Z,-0.06
2023-03-16T04:02:51.656Z,-0.07
2023-03-16T04:05:28.501Z,-0.07
2023-03-16T04:07:57.762Z,-0.08
2023-03-16T04:10:30.676Z,-0.08
2023-03-16T04:13:01.058Z,-0.10
2023-03-16T04:15:33.251Z,-0.09
2023-03-16T04:18:13.008Z,-0.07
2023-03-16T04:20:41.581Z,-0.06
2023-03-16T04:23:10.178Z,-0.07
2023-03-16T04:25:39.248Z,-0.07
2023-03-16T04:28:07.460Z,-0.08
2023-03-16T04:30:36.734Z,-0.10
2023-03-16T04:33:15.835Z,-0.12
2023-03-16T04:35:46.473Z,-0.13
2023-03-16T04:38:18.354Z,-0.14
2023-03-16T04:40:53.442Z,-0.14
2023-03-16T04:43:24.572Z,-0.15
2023-03-16T04:45:56.311Z,-0.18
2023-03-16T04:48:25.931Z,-0.17
2023-03-16T04:50:55.078Z,-0.15
2023-03-16T04:53:23.189Z,-0.14
2023-03-16T04:55:56.120Z,-0.13
2023-03-16T04:58:25.794Z,-0.12
2023-03-16T05:00:58.373Z,-0.13
2023-03-16T05:03:31.079Z,-0.12
2023-03-16T05:05:59.689Z,-0.15
2023-03-16T05:08:28.320Z,-0.13
2023-03-16T05:10:57.765Z,-0.11
2023-03-16T05:13:26.277Z,-0.12
2023-03-16T05:15:55.231Z,-0.11
2023-03-16T05:18:28.193Z,-0.09
2023-03-16T05:20:57.246Z,-0.08
2023-03-16T05:23:27.469Z,-0.09
2023-03-16T05:26:01.196Z,-0.11
2023-03-16T05:28:31.210Z,-0.13
2023-03-16T05:31:06.046Z,-0.16
2023-03-16T05:33:39.833Z,-0.17
2023-03-16T05:36:11.256Z,-0.18
2023-03-16T05:38:39.899Z,-0.23
2023-03-16T05:41:10.525Z,-0.26
2023-03-16T05:44:11.396Z,-0.28
2023-03-16T05:46:53.677Z,-0.30
2023-03-16T05:49:22.251Z,-0.31
2023-03-16T05:51:51.086Z,-0.33
2023-03-16T05:54:19.362Z,-0.36
2023-03-16T05:56:47.576Z,-0.36
2023-03-16T05:59:18.849Z,-0.36
2023-03-16T06:01:52.502Z,-0.37
2023-03-16T06:04:22.031Z,-0.35
2023-03-16T06:06:51.789Z,-0.32
2023-03-16T06:09:26.980Z,-0.30
2023-03-16T06:11:55.640Z,-0.28
2023-03-16T06:14:24.983Z,-0.25
2023-03-16T06:16:53.929Z,-0.22
2023-03-16T06:19:24.076Z,-0.19
2023-03-16T06:21:56.134Z,-0.15
2023-03-16T06:24:25.357Z,-0.12
2023-03-16T06:26:53.536Z,-0.10
2023-03-16T06:29:22.969Z,-0.10
2023-03-16T06:31:52.747Z,-0.09
2023-03-16T06:34:21.265Z,-0.08
2023-03-16T06:36:49.283Z,-0.07
2023-03-16T06:40:17.884Z,-0.05
2023-03-16T06:44:27.202Z,-0.00
2023-03-16T06:47:55.520Z,0.03
2023-03-16T06:50:24.826Z,0.06
2023-03-16T06:52:52.926Z,0.07
2023-03-16T06:55:50.096Z,0.08
2023-03-16T06:58:19.232Z,0.09
2023-03-16T07:00:48.554Z,0.10
2023-03-16T07:03:21.238Z,0.12
2023-03-16T07:06:13.517Z,0.13
2023-03-16T07:08:44.917Z,0.15
2023-03-16T07:11:14.957Z,0.17
2023-03-16T07:13:44.578Z,0.19
2023-03-16T07:16:13.595Z,0.22
2023-03-16T07:18:44.541Z,0.22
2023-03-16T07:21:17.238Z,0.23
2023-03-16T07:24:46.674Z,0.25
2023-03-16T07:27:17.207Z,0.26
2023-03-16T07:29:46.556Z,0.30
2023-03-16T07:32:18.315Z,0.31
2023-03-16T07:34:58.130Z,0.31
2023-03-16T07:37:27.880Z,0.32
2023-03-16T07:39:57.754Z,0.35
2023-03-16T07:42:27.250Z,0.38
2023-03-16T07:45:07.972Z,0.42
2023-03-16T07:48:18.357Z,0.46
2023-03-16T07:51:32.968Z,0.50
2023-03-16T07:54:30.163Z,0.54
2023-03-16T07:58:02.300Z,0.58
2023-03-16T08:01:51.979Z,0.60
2023-03-16T08:05:21.473Z,0.60
2023-03-16T08:07:54.115Z,0.62
2023-03-16T08:11:16.114Z,0.70
2023-03-16T08:14:43.468Z,0.73
2023-03-16T08:17:45.253Z,0.77
2023-03-16T08:21:02.109Z,0.83
2023-03-16T08:24:18.449Z,0.86
2023-03-16T08:26:47.609Z,0.89
2023-03-16T08:29:18.806Z,0.90
2023-03-16T08:31:47.140Z,0.87
2023-03-16T08:34:23.807Z,0.84
2023-03-16T08:36:52.528Z,0.83
2023-03-16T08:39:20.631Z,0.84
2023-03-16T08:41:49.073Z,0.86
2023-03-16T08:44:28.386Z,0.91
2023-03-16T08:47:20.889Z,0.97
2023-03-16T08:50:10.012Z,1.02
2023-03-16T08:52:38.486Z,1.06
2023-03-16T08:55:09.799Z,1.09
2023-03-16T08:57:39.868Z,1.11
2023-03-16T09:00:15.922Z,1.12
2023-03-16T09:02:44.849Z,1.14
2023-03-16T09:05:15.002Z,1.14
2023-03-16T09:08:23.710Z,1.12
2023-03-16T09:11:07.591Z,1.15
2023-03-16T09:13:40.435Z,1.18
2023-03-16T09:16:10.149Z,1.22
2023-03-16T09:18:38.792Z,1.25
2023-03-16T09:21:10.440Z,1.27
2023-03-16T09:23:38.732Z,1.32
2023-03-16T09:26:07.627Z,1.34
2023-03-16T09:28:39.058Z,1.35
2023-03-16T09:31:08.251Z,1.38
2023-03-16T09:33:37.034Z,1.40
2023-03-16T09:36:06.100Z,1.40
2023-03-16T09:38:34.405Z,1.42
2023-03-16T09:41:16.503Z,1.47
2023-03-16T09:43:58.390Z,1.53
2023-03-16T09:46:27.143Z,1.57
2023-03-16T09:48:57.961Z,1.64
2023-03-16T09:51:38.770Z,1.73
2023-03-16T09:54:19.320Z,1.74
2023-03-16T09:56:54.703Z,1.77
2023-03-16T09:59:45.161Z,1.84
2023-03-16T10:03:20.485Z,1.86
2023-03-16T10:05:57.424Z,1.89
2023-03-16T10:08:55.358Z,1.88
2023-03-16T10:11:36.687Z,1.91
2023-03-16T10:14:26.057Z,1.92
2023-03-16T10:17:43.162Z,1.94
2023-03-16T10:20:17.564Z,1.93
2023-03-16T10:22:48.097Z,1.91
2023-03-16T10:25:19.715Z,1.88
2023-03-16T10:28:48.461Z,1.88
2023-03-16T10:32:52.336Z,1.91
2023-03-16T10:36:29.190Z,1.88
2023-03-16T10:40:38.732Z,1.86
2023-03-16T10:44:30.375Z,1.81
2023-03-16T10:46:58.830Z,1.75
2023-03-16T10:49:29.991Z,1.76
2023-03-16T10:52:25.064Z,1.77
2023-03-16T10:56:09.358Z,1.75
2023-03-16T11:00:20.510Z,1.66
2023-03-16T11:04:29.747Z,1.69
2023-03-16T11:06:59.194Z,1.78
2023-03-16T11:13:37.904Z,1.80
2023-03-16T11:16:31.214Z,1.73
2023-03-16T11:19:21.183Z,1.64
2023-03-16T11:22:42.393Z,1.57
2023-03-16T11:25:26.992Z,1.52
2023-03-16T11:28:26.963Z,1.50
2023-03-16T11:32:45.608Z,1.49
2023-03-16T11:35:33.437Z,1.47
2023-03-16T11:43:54.660Z,1.39
2023-03-16T11:48:36.323Z,1.39
2023-03-16T11:52:19.317Z,1.43
2023-03-16T11:54:55.684Z,1.46
2023-03-16T11:57:57.074Z,1.50
2023-03-16T12:00:34.099Z,1.53
2023-03-16T12:03:50.749Z,1.53
2023-03-16T12:06:44.068Z,1.52
2023-03-16T12:09:32.369Z,1.50
2023-03-16T12:12:24.972Z,1.50
2023-03-16T12:14:58.849Z,1.49
2023-03-16T12:17:53.621Z,1.50
2023-03-16T12:20:26.938Z,1.55
2023-03-16T12:23:27.290Z,1.58
2023-03-16T12:25:59.935Z,1.60
2023-03-16T12:28:30.186Z,1.61
2023-03-16T12:32:05.393Z,1.62
2023-03-16T12:36:37.506Z,1.66
2023-03-16T12:41:18.068Z,1.75
2023-03-16T12:45:08.746Z,1.79
2023-03-16T12:47:51.002Z,1.78
2023-03-16T12:51:35.802Z,1.74
2023-03-16T12:56:07.570Z,1.73
2023-03-16T13:00:39.527Z,1.71
2023-03-16T13:04:51.905Z,1.68
2023-03-16T13:09:04.961Z,1.72
2023-03-16T13:13:30.632Z,1.73
2023-03-16T13:17:32.395Z,1.72
2023-03-16T13:21:28.245Z,1.69
2023-03-16T13:25:39.929Z,1.75
2023-03-16T13:29:56.248Z,1.83
2023-03-16T13:33:20.636Z,1.92
2023-03-16T13:36:14.405Z,1.99
2023-03-16T13:39:19.204Z,2.02
2023-03-16T13:42:22.296Z,2.04
2023-03-16T13:45:17.278Z,2.03
2023-03-16T13:48:56.192Z,2.00
2023-03-16T13:52:12.647Z,1.98
2023-03-16T13:55:18.490Z,1.91
2023-03-16T13:58:20.741Z,1.90
2023-03-16T14:01:26.093Z,1.87
2023-03-16T14:04:24.270Z,1.79
2023-03-16T14:07:21.893Z,1.71
2023-03-16T14:10:19.268Z,1.62
2023-03-16T14:13:31.032Z,1.54
2023-03-16T14:16:28.417Z,1.48
2023-03-16T14:19:34.592Z,1.45
2023-03-16T14:22:53.563Z,1.41
2023-03-16T14:25:56.711Z,1.37
2023-03-16T14:29:23.244Z,1.34
2023-03-16T14:32:42.484Z,1.27
2023-03-16T14:36:01.555Z,1.19
2023-03-16T14:39:16.881Z,1.12
2023-03-16T14:42:39.886Z,1.03
2023-03-16T14:45:40.370Z,0.97
2023-03-16T14:48:36.727Z,0.96
2023-03-16T14:51:35.449Z,0.96
2023-03-16T14:55:08.076Z,1.01
2023-03-16T14:58:22.435Z,1.04
2023-03-16T15:01:28.730Z,1.03
2023-03-16T15:04:53.294Z,1.04
2023-03-16T15:08:11.578Z,1.06
2023-03-16T15:11:24.795Z,1.12
2023-03-16T15:15:35.730Z,1.17
2023-03-16T15:19:29.868Z,1.18
2023-03-16T15:22:58.906Z,1.17
2023-03-16T15:26:52.246Z,1.18
2023-03-16T15:29:47.300Z,1.19
2023-03-16T15:32:56.859Z,1.19
2023-03-16T15:35:52.638Z,1.18
2023-03-16T15:38:49.226Z,1.19
2023-03-16T15:42:43.693Z,1.22
2023-03-16T15:47:15.897Z,1.25
2023-03-16T15:51:35.784Z,1.28
2023-03-16T15:54:29.539Z,1.28
2023-03-16T15:57:21.095Z,1.27
2023-03-16T16:00:28.033Z,1.26
2023-03-16T16:03:41.990Z,1.29
2023-03-16T16:07:35.080Z,1.29
2023-03-16T16:11:16.942Z,1.29
2023-03-16T16:14:23.027Z,1.30
2023-03-16T16:18:21.498Z,1.30
2023-03-16T16:22:19.814Z,1.29
2023-03-16T16:26:16.909Z,1.29
2023-03-16T16:31:02.213Z,1.27
2023-03-16T16:35:34.782Z,1.25
2023-03-16T16:39:17.118Z,1.23
2023-03-16T16:42:30.727Z,1.22
2023-03-16T16:45:54.649Z,1.18
2023-03-16T16:49:28.541Z,1.15
2023-03-16T16:52:22.294Z,1.11
2023-03-16T16:55:51.579Z,1.08
2023-03-16T17:00:24.877Z,1.02
2023-03-16T17:04:57.506Z,0.99
2023-03-16T17:08:31.723Z,0.96
2023-03-16T17:11:27.124Z,0.95
2023-03-16T17:14:22.593Z,0.93
2023-03-16T17:17:19.701Z,0.92
2023-03-16T17:20:30.268Z,0.91
2023-03-16T17:23:51.138Z,0.89
2023-03-16T17:26:47.001Z,0.88
2023-03-16T17:29:43.443Z,0.86
2023-03-16T17:32:35.948Z,0.86
2023-03-16T17:36:28.325Z,0.85
2023-03-16T17:41:03.713Z,0.83
2023-03-16T17:45:18.818Z,0.82
2023-03-16T17:49:36.105Z,0.82
2023-03-16T17:53:30.204Z,0.80
2023-03-16T17:57:24.360Z,0.80
2023-03-16T18:01:23.076Z,0.80
2023-03-16T18:05:36.035Z,0.78
2023-03-16T18:09:47.171Z,0.78
2023-03-16T18:13:30.890Z,0.79
2023-03-16T18:16:30.046Z,0.79
2023-03-16T18:19:25.433Z,0.79
2023-03-16T18:22:20.295Z,0.80
2023-03-16T18:25:33.204Z,0.79
2023-03-16T18:28:27.512Z,0.79
2023-03-16T18:31:28.680Z,0.79
2023-03-16T18:34:24.047Z,0.82
2023-03-16T18:37:28.766Z,0.86
2023-03-16T18:40:26.686Z,0.90
2023-03-16T18:43:36.921Z,0.95
2023-03-16T18:46:54.975Z,1.01
2023-03-16T18:50:07.912Z,1.07
2023-03-16T18:53:01.240Z,1.10
2023-03-16T18:56:05.124Z,1.12
2023-03-16T18:59:10.109Z,1.14
2023-03-16T19:02:06.067Z,1.16
2023-03-16T19:05:30.127Z,1.18
2023-03-16T19:08:42.744Z,1.19
2023-03-16T19:11:49.065Z,1.22
2023-03-16T19:14:48.238Z,1.24
2023-03-16T19:17:46.496Z,1.24
2023-03-16T19:21:08.064Z,1.25
2023-03-16T19:24:06.168Z,1.24
2023-03-16T19:27:59.494Z,1.24
2023-03-16T19:32:11.787Z,1.21
2023-03-16T19:36:04.289Z,1.23
2023-03-16T19:40:16.618Z,1.23
2023-03-16T19:43:32.559Z,1.20
2023-03-16T19:46:47.826Z,1.21
2023-03-16T19:49:51.632Z,1.20
2023-03-16T19:52:48.058Z,1.21
2023-03-16T19:55:52.292Z,1.20
2023-03-16T19:59:12.032Z,1.16
2023-03-16T20:03:36.652Z,1.11
2023-03-16T20:07:43.374Z,1.05
2023-03-16T20:11:39.266Z,0.98
2023-03-16T20:15:16.514Z,0.93
2023-03-16T20:18:35.044Z,0.88
2023-03-16T20:22:30.404Z,0.84
2023-03-16T20:26:22.216Z,0.81
2023-03-16T20:30:06.513Z,0.78
2023-03-16T20:33:23.375Z,0.77
2023-03-16T20:36:49.638Z,0.75
2023-03-16T20:40:09.958Z,0.71
2023-03-16T20:43:15.886Z,0.71
2023-03-16T20:47:15.845Z,0.69
2023-03-16T20:50:55.992Z,0.67
2023-03-16T20:53:56.712Z,0.66
2023-03-16T20:56:51.874Z,0.65
2023-03-16T21:00:05.469Z,0.64
2023-03-16T21:03:02.523Z,0.64
2023-03-16T21:06:31.855Z,0.64
2023-03-16T21:09:30.038Z,0.64
2023-03-16T21:12:37.049Z,0.63
2023-03-16T21:15:38.065Z,0.63
2023-03-16T21:18:51.532Z,0.61
2023-03-16T21:21:47.962Z,0.61
2023-03-16T21:24:44.792Z,0.60
2023-03-16T21:27:39.830Z,0.59
2023-03-16T21:30:37.500Z,0.58
2023-03-16T21:33:44.125Z,0.57
2023-03-16T21:36:41.336Z,0.55
2023-03-16T21:39:36.403Z,0.53
2023-03-16T21:42:28.424Z,0.52
2023-03-16T21:45:22.060Z,0.51
2023-03-16T21:48:20.475Z,0.50
2023-03-16T21:51:19.592Z,0.48
2023-03-16T21:54:15.718Z,0.46
2023-03-16T21:57:15.896Z,0.45
2023-03-16T22:00:11.047Z,0.43
2023-03-16T22:03:04.357Z,0.42
2023-03-16T22:05:58.021Z,0.41
2023-03-16T22:08:51.555Z,0.40
2023-03-16T22:11:44.079Z,0.38
2023-03-16T22:14:36.864Z,0.37
2023-03-16T22:17:29.334Z,0.38
2023-03-16T22:20:27.222Z,0.40
2023-03-16T22:23:34.797Z,0.43
2023-03-16T22:26:28.772Z,0.47
2023-03-16T22:29:29.802Z,0.50
2023-03-16T22:32:23.024Z,0.54
2023-03-16T22:35:35.737Z,0.57
2023-03-16T22:38:27.545Z,0.61
2023-03-16T22:41:21.087Z,0.62
2023-03-16T22:44:22.406Z,0.63
2023-03-16T22:47:26.605Z,0.65
2023-03-16T22:50:20.613Z,0.70
2023-03-16T22:53:18.278Z,0.77
2023-03-16T22:56:11.055Z,0.80
2023-03-16T22:59:11.558Z,0.84
2023-03-16T23:02:03.689Z,0.85
2023-03-16T23:04:56.579Z,0.85
2023-03-16T23:07:48.904Z,0.83
2023-03-16T23:10:42.325Z,0.78
2023-03-16T23:13:34.500Z,0.73
2023-03-16T23:16:34.735Z,0.72
2023-03-16T23:19:34.125Z,0.70
2023-03-16T23:22:27.389Z,0.66
2023-03-16T23:25:20.681Z,0.65
2023-03-16T23:28:18.158Z,0.60
2023-03-16T23:31:14.568Z,0.52
2023-03-16T23:34:19.345Z,0.44
2023-03-16T23:37:12.062Z,0.37
2023-03-16T23:40:04.753Z,0.29
2023-03-16T23:43:00.852Z,0.22
2023-03-16T23:45:52.973Z,0.12
2023-03-16T23:48:49.385Z,0.05
2023-03-16T23:51:41.585Z,-0.03
2023-03-16T23:54:34.111Z,-0.11
2023-03-16T23:57:27.414Z,-0.19
